Time;durP1;ratioP1;P1;durP2;ratioP2;P2;SDS_P1;SDS_P2;PMS_P1;PMS_P2;Temp;Humidity;BMP_temperature;BMP_pressure;BME280_temperature;BME280_humidity;BME280_pressure;Samples;Min_cycle;Max_cycle;Signal;HPM_P1;HPM_P2
2022/07/17 00:00:52;;;;;;;3.50;3.20;;;;;;;23.04;50.84;95268.00;5115650;28;20218;-68
2022/07/17 00:03:19;;;;;;;3.17;2.95;;;;;;;23.02;50.73;95272.47;5115718;28;20191;-68
2022/07/17 00:05:46;;;;;;;3.63;3.10;;;;;;;23.00;50.55;95275.72;5115173;28;20227;-68
2022/07/17 00:08:13;;;;;;;4.70;3.25;;;;;;;22.98;50.65;95280.97;5114702;28;20200;-68
2022/07/17 00:10:42;;;;;;;3.70;3.40;;;;;;;22.95;50.49;95281.84;5114494;28;20187;-68
2022/07/17 00:13:09;;;;;;;3.25;2.95;;;;;;;22.93;50.79;95275.03;5115355;28;20195;-68
2022/07/17 00:15:37;;;;;;;3.28;3.08;;;;;;;22.92;50.57;95277.06;5114947;28;20195;-68
2022/07/17 00:18:06;;;;;;;3.10;2.90;;;;;;;22.91;50.39;95274.63;5114452;28;20213;-68
2022/07/17 00:20:32;;;;;;;3.10;2.90;;;;;;;22.91;50.55;95277.44;5115578;28;20199;-68
2022/07/17 00:22:59;;;;;;;2.92;2.72;;;;;;;22.91;50.50;95280.25;5115118;28;20211;-68
2022/07/17 00:25:26;;;;;;;3.47;2.97;;;;;;;22.92;50.51;95274.25;5115011;28;20207;-68
2022/07/17 00:27:53;;;;;;;3.05;2.80;;;;;;;22.89;50.58;95282.72;5114933;28;20248;-68
2022/07/17 00:30:21;;;;;;;3.30;2.95;;;;;;;22.84;50.75;95275.56;5114667;28;20195;-68
2022/07/17 00:32:49;;;;;;;3.00;2.80;;;;;;;22.83;51.22;95282.41;5115071;28;20196;-68
2022/07/17 00:35:15;;;;;;;2.90;2.70;;;;;;;22.78;50.83;95278.06;5114402;28;20203;-68
2022/07/17 00:37:44;;;;;;;5.47;3.30;;;;;;;22.74;51.95;95277.34;5114567;28;20196;-68
2022/07/17 00:40:15;;;;;;;4.40;3.58;;;;;;;22.64;52.48;95283.94;5115184;28;20221;-68
2022/07/17 00:42:42;;;;;;;5.60;3.20;;;;;;;22.54;53.17;95294.09;5115242;28;20203;-68
2022/07/17 00:45:10;;;;;;;3.75;3.20;;;;;;;22.47;53.14;95291.41;5115092;28;20222;-68
2022/07/17 00:47:51;;;;;;;4.40;3.25;;;;;;;22.46;53.11;95280.59;5115305;28;20184;-68
2022/07/17 00:50:18;;;;;;;3.78;3.22;;;;;;;22.41;53.71;95295.16;5114384;28;20203;-68
2022/07/17 00:52:45;;;;;;;4.57;3.40;;;;;;;22.34;54.18;95302.47;5114953;28;20210;-68
2022/07/17 00:55:12;;;;;;;3.55;3.30;;;;;;;22.28;54.45;95298.53;5114248;28;20587;-68
2022/07/17 00:57:41;;;;;;;4.78;3.17;;;;;;;22.25;54.49;95296.56;5114599;28;20208;-68
2022/07/17 01:00:10;;;;;;;3.75;3.17;;;;;;;22.23;54.35;95295.41;5118148;28;20187;-68
2022/07/17 01:02:37;;;;;;;5.72;3.53;;;;;;;22.19;54.66;95297.47;5118212;28;20219;-68
2022/07/17 01:05:06;;;;;;;6.63;3.75;;;;;;;22.13;54.95;95304.75;5118401;28;20234;-68
2022/07/17 01:07:33;;;;;;;7.68;4.22;;;;;;;22.07;54.85;95301.59;5118297;27;20230;-68
2022/07/17 01:10:00;;;;;;;6.38;3.95;;;;;;;22.01;55.30;95301.28;5117835;28;20211;-68
2022/07/17 01:12:28;;;;;;;6.47;4.32;;;;;;;21.98;55.40;95307.75;5118586;28;20207;-68
2022/07/17 01:14:55;;;;;;;5.07;3.70;;;;;;;21.92;54.68;95308.63;5118858;28;20196;-68
2022/07/17 01:17:21;;;;;;;4.47;3.50;;;;;;;21.90;54.46;95305.47;5118323;28;20494;-68
2022/07/17 01:19:48;;;;;;;5.38;3.60;;;;;;;21.94;54.64;95301.38;5118589;28;20572;-68
2022/07/17 01:22:17;;;;;;;3.63;3.33;;;;;;;21.96;54.12;95298.94;5118191;28;20227;-68
2022/07/17 01:24:44;;;;;;;3.65;3.13;;;;;;;21.97;53.14;95291.31;5117701;28;20223;-68
2022/07/17 01:27:10;;;;;;;4.28;3.85;;;;;;;21.91;53.87;95291.00;5117466;28;20203;-68
2022/07/17 01:29:38;;;;;;;3.40;3.10;;;;;;;21.91;54.07;95298.63;5117441;28;20198;-68
2022/07/17 01:32:05;;;;;;;3.53;2.95;;;;;;;21.91;53.31;95304.25;5117715;28;20195;-68
2022/07/17 01:34:32;;;;;;;4.05;3.00;;;;;;;21.92;53.85;95295.38;5117397;28;20206;-68
2022/07/17 01:36:59;;;;;;;4.05;3.30;;;;;;;21.88;54.17;95309.47;5117305;28;20199;-68
2022/07/17 01:42:08;;;;;;;3.80;3.50;;;;;;;21.85;54.56;95309.50;5115849;28;20235;-68
2022/07/17 01:44:35;;;;;;;4.28;3.05;;;;;;;21.85;54.35;95299.06;5118043;28;20192;-68
2022/07/17 01:47:01;;;;;;;3.20;2.90;;;;;;;21.85;53.90;95296.25;5118006;28;20171;-68
2022/07/17 01:49:28;;;;;;;3.42;3.13;;;;;;;21.88;53.39;95303.06;5118078;28;20192;-68
2022/07/17 01:51:59;;;;;;;4.00;3.00;;;;;;;21.95;52.08;95299.38;5117880;28;20206;-68
2022/07/17 01:54:27;;;;;;;3.20;2.90;;;;;;;22.00;51.36;95305.28;5116603;28;20227;-68
2022/07/17 01:56:54;;;;;;;3.22;2.92;;;;;;;22.03;51.46;95304.44;5117491;28;20185;-68
2022/07/17 01:59:21;;;;;;;3.20;3.00;;;;;;;22.07;51.13;95305.19;5117551;28;20187;-68
2022/07/17 02:01:48;;;;;;;3.28;3.08;;;;;;;22.08;50.45;95308.81;5116819;28;20488;-68
2022/07/17 02:04:15;;;;;;;3.45;3.15;;;;;;;22.08;50.28;95303.22;5117192;28;20195;-68
2022/07/17 02:06:42;;;;;;;3.40;3.10;;;;;;;22.09;50.03;95307.59;5116791;28;20211;-68
2022/07/17 02:09:08;;;;;;;3.13;2.92;;;;;;;22.08;49.86;95304.00;5117302;28;20199;-68
2022/07/17 02:11:36;;;;;;;3.45;3.13;;;;;;;22.09;49.75;95305.59;5117327;28;20191;-68
2022/07/17 02:14:03;;;;;;;3.92;2.90;;;;;;;22.08;49.86;95304.00;5117476;28;20501;-68
2022/07/17 02:16:30;;;;;;;3.10;2.90;;;;;;;22.06;49.48;95303.63;5117513;28;20210;-68
2022/07/17 02:18:57;;;;;;;3.45;3.15;;;;;;;;;;5116495;28;20203;-68
2022/07/17 02:21:23;;;;;;;3.30;3.00;;;;;;;22.03;49.56;95310.06;5116901;28;20192;-68
2022/07/17 02:23:50;;;;;;;3.38;2.97;;;;;;;22.04;49.57;95302.44;5116663;28;20243;-68
2022/07/17 02:26:17;;;;;;;3.30;3.10;;;;;;;22.03;49.31;95295.25;5116924;28;20643;-68
2022/07/17 02:28:45;;;;;;;3.50;3.20;;;;;;;21.96;50.46;95298.94;5116423;28;20192;-68
2022/07/17 02:31:12;;;;;;;3.35;3.05;;;;;;;21.91;51.05;95307.03;5117106;28;20180;-68
2022/07/17 02:33:39;;;;;;;3.60;3.08;;;;;;;21.89;50.42;95307.44;5117062;28;20195;-68
2022/07/17 02:36:06;;;;;;;3.70;3.40;;;;;;;21.90;49.84;95292.22;5116215;28;20191;-68
2022/07/17 02:38:33;;;;;;;3.60;3.30;;;;;;;21.93;49.64;95304.59;5116962;28;20184;-68
2022/07/17 02:41:00;;;;;;;3.85;3.55;;;;;;;21.90;50.68;95308.28;5116638;28;20191;-68
2022/07/17 02:43:45;;;;;;;4.95;4.45;;;;;;;21.79;51.88;95314.03;5115992;28;20196;-68
2022/07/17 02:46:14;;;;;;;4.00;3.22;;;;;;;21.72;52.34;95311.28;5117219;28;20630;-68
2022/07/17 02:48:41;;;;;;;3.97;2.92;;;;;;;21.65;52.19;95312.16;5116003;28;20223;-68
2022/07/17 02:51:08;;;;;;;3.20;3.00;;;;;;;21.60;52.25;95316.22;5115779;28;20588;-68
2022/07/17 02:53:35;;;;;;;4.63;4.07;;;;;;;21.54;53.87;95319.91;5116190;28;20227;-68
2022/07/17 02:56:02;;;;;;;5.32;4.63;;;;;;;21.38;54.44;95323.28;5116671;28;20212;-68
2022/07/17 02:58:28;;;;;;;5.57;4.82;;;;;;;21.20;54.02;95320.63;5116619;28;20180;-68
2022/07/17 03:00:55;;;;;;;6.47;4.80;;;;;;;21.06;54.44;95324.38;5115532;28;20204;-68
2022/07/17 03:03:23;;;;;;;7.05;4.80;;;;;;;21.00;54.10;95325.25;5116499;28;20195;-68
2022/07/17 03:05:50;;;;;;;6.68;4.50;;;;;;;20.98;54.70;95334.06;5116554;28;20780;-68
2022/07/17 03:08:17;;;;;;;5.55;4.18;;;;;;;20.96;55.35;95332.91;5116531;28;20194;-68
2022/07/17 03:10:43;;;;;;;5.85;4.55;;;;;;;20.88;54.89;95332.16;5116178;28;20184;-68
2022/07/17 03:13:10;;;;;;;7.32;4.60;;;;;;;20.80;55.50;95341.81;5115908;28;20654;-68
2022/07/17 03:15:37;;;;;;;6.55;4.80;;;;;;;20.76;55.82;95347.44;5116292;28;20195;-68
2022/07/17 03:18:04;;;;;;;6.40;4.55;;;;;;;20.78;55.95;95345.03;5116006;28;20184;-68
2022/07/17 03:20:32;;;;;;;6.40;4.38;;;;;;;20.79;56.55;95355.03;5115889;28;20196;-68
2022/07/17 03:22:59;;;;;;;7.07;5.22;;;;;;;20.75;56.58;95356.28;5114706;28;20211;-68
2022/07/17 03:25:26;;;;;;;8.73;4.93;;;;;;;20.66;56.19;95349.16;5115699;28;20211;-68
2022/07/17 03:27:52;;;;;;;8.65;5.00;;;;;;;20.67;56.31;95349.94;5116000;28;20200;-68
2022/07/17 03:30:19;;;;;;;7.10;4.68;;;;;;;20.66;56.57;95349.16;5115213;28;20196;-68
2022/07/17 03:32:46;;;;;;;5.43;4.15;;;;;;;20.66;57.10;95360.34;5115233;28;20199;-68
2022/07/17 03:35:12;;;;;;;6.07;4.88;;;;;;;20.65;57.34;95364.34;5114754;28;20198;-68
2022/07/17 03:37:43;;;;;;;7.07;4.40;;;;;;;20.67;57.15;95372.34;5115017;28;20203;-68
2022/07/17 03:40:12;;;;;;;3.58;3.28;;;;;;;20.75;56.00;95371.09;5115997;28;20206;-68
2022/07/17 03:42:38;;;;;;;3.47;3.20;;;;;;;20.77;55.09;95371.50;5115039;28;20195;-68
2022/07/17 03:45:06;;;;;;;3.97;3.35;;;;;;;20.82;54.83;95370.25;5115768;28;20195;-68
2022/07/17 03:47:33;;;;;;;4.53;3.10;;;;;;;20.89;54.08;95364.59;5115807;28;20184;-68
2022/07/17 03:50:00;;;;;;;4.03;3.40;;;;;;;20.94;53.67;95364.13;5115323;28;20192;-68
2022/07/17 03:52:27;;;;;;;3.50;3.10;;;;;;;20.96;53.47;95369.34;5115818;28;20191;-68
2022/07/17 03:54:55;;;;;;;3.53;2.92;;;;;;;20.95;53.96;95373.34;5114482;28;20246;-68
2022/07/17 03:57:22;;;;;;;3.75;3.38;;;;;;;20.97;53.78;95376.53;5115635;28;20192;-68
2022/07/17 03:59:48;;;;;;;3.80;3.10;;;;;;;20.96;53.62;95384.16;5115717;28;20199;-68
2022/07/17 04:02:15;;;;;;;3.50;3.20;;;;;;;20.97;53.55;95396.16;5115697;28;20187;-68
2022/07/17 04:04:42;;;;;;;3.53;3.20;;;;;;;20.96;53.35;95389.75;5114822;28;20587;-68
2022/07/17 04:07:26;;;;;;;4.00;3.70;;;;;;;20.96;54.38;95397.38;5114634;28;20208;-68
2022/07/17 04:09:55;;;;;;;4.03;3.17;;;;;;;20.95;53.68;95390.94;5115331;28;20606;-68
2022/07/17 04:12:22;;;;;;;5.43;3.88;;;;;;;20.91;55.82;95396.63;5114598;28;20661;-68
2022/07/17 04:14:49;;;;;;;8.35;5.07;;;;;;;20.88;56.53;95399.44;5115824;28;20207;-68
2022/07/17 04:17:15;;;;;;;6.63;4.20;;;;;;;20.89;56.11;95395.44;5114548;28;20199;-68
2022/07/17 04:19:42;;;;;;;4.50;4.10;;;;;;;20.90;55.85;95406.22;5115509;28;20195;-68
2022/07/17 04:22:09;;;;;;;3.65;3.22;;;;;;;20.94;55.68;95411.00;5114921;28;20191;-68
2022/07/17 04:24:36;;;;;;;3.90;3.45;;;;;;;20.92;55.56;95403.81;5115510;28;20191;-68
2022/07/17 04:27:04;;;;;;;3.70;3.30;;;;;;;20.96;54.63;95409.38;5114343;28;20223;-68
2022/07/17 04:29:31;;;;;;;5.03;4.47;;;;;;;20.99;56.71;95399.34;5114564;28;20203;-68
2022/07/17 04:31:58;;;;;;;4.97;4.15;;;;;;;20.99;57.65;95405.75;5114858;28;20199;-68
2022/07/17 04:34:24;;;;;;;4.68;4.10;;;;;;;20.98;58.07;95409.75;5118501;28;20195;-68
2022/07/17 04:36:51;;;;;;;6.60;4.13;;;;;;;21.00;58.54;95406.56;5118489;28;20198;-68
2022/07/17 04:39:18;;;;;;;7.40;4.03;;;;;;;21.05;58.09;95420.91;5119366;28;20195;-68
2022/07/17 04:41:44;;;;;;;4.07;3.78;;;;;;;21.08;57.65;95417.28;5118278;28;20196;-68
2022/07/17 04:44:13;;;;;;;5.05;3.90;;;;;;;21.08;56.94;95410.88;5119242;28;20195;-68
2022/07/17 04:46:39;;;;;;;4.90;4.00;;;;;;;21.07;56.37;95417.72;5118221;28;20207;-68
2022/07/17 04:49:06;;;;;;;5.47;3.80;;;;;;;21.09;56.97;95421.69;5118794;28;20180;-68
2022/07/17 04:51:33;;;;;;;4.70;3.95;;;;;;;21.12;56.32;95420.06;5119080;28;20260;-68
2022/07/17 04:54:00;;;;;;;5.32;3.90;;;;;;;21.14;55.59;95424.06;5118875;28;20561;-68
2022/07/17 04:56:26;;;;;;;4.35;3.67;;;;;;;21.18;55.60;95431.66;5119045;28;20184;-68
2022/07/17 04:58:53;;;;;;;5.30;4.47;;;;;;;21.22;56.23;95436.03;5117706;28;20184;-68
2022/07/17 05:01:21;;;;;;;5.18;3.90;;;;;;;21.24;56.69;95436.41;5118689;28;20196;-68
2022/07/17 05:03:48;;;;;;;4.28;3.97;;;;;;;21.26;54.94;95441.59;5118179;28;20184;-68
2022/07/17 05:06:15;;;;;;;6.10;3.88;;;;;;;21.27;54.43;95443.19;5117506;28;20679;-68
2022/07/17 05:08:41;;;;;;;4.18;3.60;;;;;;;21.29;54.81;95450.00;5118025;28;20188;-68
2022/07/17 05:11:08;;;;;;;6.00;3.80;;;;;;;21.30;55.74;95445.16;5117482;28;20195;-68
2022/07/17 05:13:35;;;;;;;5.90;4.35;;;;;;;21.32;55.44;95442.75;5118541;28;20626;-68
2022/07/17 05:16:02;;;;;;;4.57;4.18;;;;;;;21.32;54.80;95440.75;5118679;28;20203;-68
2022/07/17 05:18:30;;;;;;;4.05;3.65;;;;;;;21.35;53.69;95439.13;5118614;28;20172;-68
2022/07/17 05:20:57;;;;;;;5.13;3.55;;;;;;;21.38;53.58;95443.91;5118617;28;20188;-68
2022/07/17 05:23:24;;;;;;;3.50;3.20;;;;;;;21.38;53.16;95447.53;5118198;28;20195;-68
2022/07/17 05:25:50;;;;;;;4.15;3.83;;;;;;;21.43;53.28;95434.28;5117744;28;20200;-68
2022/07/17 05:28:17;;;;;;;4.18;3.83;;;;;;;21.45;52.01;95441.06;5118474;28;20248;-68
2022/07/17 05:30:44;;;;;;;3.60;3.30;;;;;;;21.48;50.97;95445.03;5118414;28;20184;-68
2022/07/17 05:33:11;;;;;;;3.97;3.28;;;;;;;21.52;50.66;95445.81;5117092;28;20196;-68
2022/07/17 05:35:39;;;;;;;3.05;2.83;;;;;;;21.56;49.25;95443.75;5118317;28;20461;-68
2022/07/17 05:38:06;;;;;;;3.47;3.17;;;;;;;21.60;48.50;95442.50;5117521;28;20206;-68
2022/07/17 05:40:33;;;;;;;4.32;3.35;;;;;;;21.63;48.42;95450.09;5117198;28;20195;-68
2022/07/17 05:43:00;;;;;;;4.13;2.90;;;;;;;21.67;47.71;95449.28;5117890;28;20180;-68
2022/07/17 05:45:26;;;;;;;6.05;2.90;;;;;;;21.69;46.86;95444.06;5117444;28;20203;-68
2022/07/17 05:47:53;;;;;;;3.88;3.47;;;;;;;21.71;45.62;95448.03;5117267;28;20588;-68
2022/07/17 05:50:20;;;;;;;4.18;3.45;;;;;;;21.75;45.92;95451.63;5117321;28;20192;-68
2022/07/17 05:52:48;;;;;;;3.28;2.97;;;;;;;21.77;46.07;95454.78;5117710;28;20198;-68
2022/07/17 05:55:15;;;;;;;3.30;3.10;;;;;;;21.80;45.96;95442.72;5116962;28;20196;-68
2022/07/17 05:57:42;;;;;;;3.30;3.00;;;;;;;21.83;45.93;95447.50;5117700;28;20209;-68
2022/07/17 06:00:10;;;;;;;3.45;3.15;;;;;;;21.85;45.77;95444.28;5118138;28;20187;-68
2022/07/17 06:02:37;;;;;;;3.67;3.15;;;;;;;21.89;45.93;95453.44;5117714;28;20180;-68
2022/07/17 06:05:04;;;;;;;3.20;2.90;;;;;;;21.92;45.77;95446.22;5117667;28;20187;-68
2022/07/17 06:07:31;;;;;;;3.47;3.17;;;;;;;21.94;45.76;95449.41;5117122;28;20219;-68
2022/07/17 06:09:59;;;;;;;3.15;2.95;;;;;;;21.96;45.48;95453.38;5117170;28;20192;-68
2022/07/17 06:12:26;;;;;;;3.78;3.38;;;;;;;22.00;45.10;95456.16;5117464;28;20176;-68
2022/07/17 06:14:53;;;;;;;3.95;3.42;;;;;;;22.02;45.59;95454.53;5117892;28;20204;-68
2022/07/17 06:17:19;;;;;;;3.58;3.10;;;;;;;;;;5116750;28;20192;-68
2022/07/17 06:19:46;;;;;;;3.38;3.03;;;;;;;22.07;45.23;95458.88;5116613;28;20206;-68
2022/07/17 06:22:13;;;;;;;3.50;3.30;;;;;;;22.08;45.20;95458.47;5117529;28;20192;-68
2022/07/17 06:24:40;;;;;;;3.67;3.22;;;;;;;22.10;44.83;95460.84;5117362;28;20191;-68
2022/07/17 06:27:08;;;;;;;4.25;3.85;;;;;;;22.12;44.59;95458.44;5116976;28;20557;-68
2022/07/17 06:29:35;;;;;;;3.70;3.40;;;;;;;22.14;45.21;95460.81;5116518;28;20207;-68
2022/07/17 06:32:02;;;;;;;3.63;3.33;;;;;;;22.13;45.96;95464.84;5117235;28;20184;-68
2022/07/17 06:34:29;;;;;;;5.03;3.50;;;;;;;22.15;45.82;95462.44;5116173;28;20599;-68
2022/07/17 06:36:56;;;;;;;3.80;3.25;;;;;;;22.17;44.87;95460.81;5115819;28;20630;-68
2022/07/17 06:39:22;;;;;;;3.65;3.35;;;;;;;22.20;44.93;95467.59;5117035;28;20191;-68
2022/07/17 06:41:49;;;;;;;4.80;3.55;;;;;;;22.22;44.89;95460.38;5116998;28;20195;-68
2022/07/17 06:44:17;;;;;;;3.50;3.20;;;;;;;22.24;45.33;95459.94;5116243;28;20196;-68
2022/07/17 06:46:44;;;;;;;3.95;3.30;;;;;;;22.24;45.45;95457.91;5116808;28;20212;-68
2022/07/17 06:49:11;;;;;;;3.50;3.03;;;;;;;22.24;46.13;95455.09;5115873;28;20225;-68
2022/07/17 06:51:37;;;;;;;4.95;3.33;;;;;;;22.25;46.25;95458.72;5116828;28;20194;-68
2022/07/17 06:54:04;;;;;;;3.58;3.28;;;;;;;22.27;44.51;95448.66;5116581;28;20315;-68
2022/07/17 06:56:31;;;;;;;4.57;3.22;;;;;;;22.29;45.11;95467.88;5114547;28;20204;-68
2022/07/17 06:58:58;;;;;;;4.38;3.40;;;;;;;22.30;45.23;95464.69;5116346;28;20183;-68
2022/07/17 07:01:26;;;;;;;4.60;3.67;;;;;;;22.37;44.93;95460.16;5115777;28;20206;-68
2022/07/17 07:03:53;;;;;;;5.13;3.33;;;;;;;22.39;44.14;95460.56;5115750;28;20203;-68
2022/07/17 07:06:19;;;;;;;3.88;3.53;;;;;;;22.42;44.74;95465.34;5115506;28;20200;-68
2022/07/17 07:08:46;;;;;;;3.47;3.20;;;;;;;22.48;44.45;95469.28;5116480;28;20487;-68
2022/07/17 07:11:13;;;;;;;3.53;3.22;;;;;;;22.51;44.93;95469.25;5115469;28;20253;-68
2022/07/17 07:13:40;;;;;;;2.95;2.75;;;;;;;22.54;45.12;95468.38;5115664;28;20206;-68
2022/07/17 07:16:07;;;;;;;3.78;3.42;;;;;;;22.58;44.09;95471.94;5116049;28;20198;-68
2022/07/17 07:18:35;;;;;;;3.95;3.60;;;;;;;22.59;44.44;95464.31;5115071;28;20203;-68
2022/07/17 07:21:01;;;;;;;3.85;3.08;;;;;;;22.57;44.53;95464.72;5116292;28;20184;-68
2022/07/17 07:23:28;;;;;;;4.22;3.30;;;;;;;22.58;44.54;95468.31;5116223;28;20188;-68
2022/07/17 07:25:55;;;;;;;4.53;4.10;;;;;;;22.63;44.87;95467.88;5115854;28;20623;-68
2022/07/17 07:28:22;;;;;;;3.67;3.30;;;;;;;22.66;45.09;95475.47;5116090;28;20203;-68
2022/07/17 07:30:48;;;;;;;3.65;3.35;;;;;;;22.66;44.86;95478.28;5115685;28;20627;-68
2022/07/17 07:33:16;;;;;;;3.72;3.30;;;;;;;22.68;43.87;95473.03;5115002;28;20202;-68
2022/07/17 07:35:44;;;;;;;4.18;3.38;;;;;;;22.69;43.66;95485.84;5116397;28;20236;-68
2022/07/17 07:38:11;;;;;;;4.05;3.65;;;;;;;22.69;44.33;95476.63;5115994;28;20195;-68
2022/07/17 07:40:39;;;;;;;3.53;3.22;;;;;;;22.75;44.66;95475.75;5115928;28;20184;-68
2022/07/17 07:43:06;;;;;;;3.70;3.40;;;;;;;22.83;44.29;95474.41;5115824;28;20187;-68
2022/07/17 07:45:33;;;;;;;3.97;3.60;;;;;;;22.84;44.02;95483.66;5115681;28;20196;-68
2022/07/17 07:47:59;;;;;;;4.03;3.72;;;;;;;22.87;44.70;95477.16;5115581;28;20195;-68
2022/07/17 07:50:28;;;;;;;6.05;3.88;;;;;;;22.92;44.28;95478.78;5114538;28;20203;-68
2022/07/17 07:52:56;;;;;;;5.82;3.30;;;;;;;22.98;43.41;95477.06;5114762;28;20231;-68
2022/07/17 07:55:23;;;;;;;3.72;3.40;;;;;;;23.01;44.27;95479.03;5115045;28;20264;-68
2022/07/17 07:57:50;;;;;;;4.22;3.60;;;;;;;23.06;44.11;95482.16;5115394;28;20596;-68
2022/07/17 08:00:19;;;;;;;3.67;3.33;;;;;;;23.13;43.81;95484.09;5115795;28;20244;-68
2022/07/17 08:02:46;;;;;;;3.75;3.47;;;;;;;23.19;42.84;95484.38;5114806;28;20199;-68
2022/07/17 08:05:12;;;;;;;5.95;5.47;;;;;;;23.21;42.96;95479.16;5115285;28;20184;-68
2022/07/17 08:07:39;;;;;;;4.20;3.75;;;;;;;23.25;43.01;95483.50;5116995;28;20203;-68
2022/07/17 08:10:08;;;;;;;4.00;3.70;;;;;;;23.25;42.39;95474.25;5122562;28;20196;-68
2022/07/17 08:12:35;;;;;;;4.05;3.75;;;;;;;23.24;42.76;95476.28;5121295;28;20195;-68
2022/07/17 08:15:01;;;;;;;3.75;3.50;;;;;;;23.28;43.69;95482.63;5122722;28;20199;-68
2022/07/17 08:17:28;;;;;;;4.13;3.72;;;;;;;23.36;44.24;95482.53;5122097;28;20186;-68
2022/07/17 08:19:55;;;;;;;3.65;3.30;;;;;;;23.41;43.92;95484.84;5121241;28;20199;-68
2022/07/17 08:22:22;;;;;;;3.88;3.45;;;;;;;23.51;43.46;95486.69;5121099;28;20207;-68
2022/07/17 08:24:48;;;;;;;5.00;3.92;;;;;;;23.54;43.80;95492.28;5122013;28;20183;-68
2022/07/17 08:27:17;;;;;;;3.72;3.40;;;;;;;23.55;43.11;95485.41;5121954;28;20207;-68
2022/07/17 08:29:44;;;;;;;4.82;3.42;;;;;;;23.60;43.93;95480.50;5105062;28;20199;-68
2022/07/17 08:32:11;;;;;;;3.83;3.47;;;;;;;23.62;42.90;95478.06;5121402;28;20203;-68
2022/07/17 08:34:37;;;;;;;3.90;3.58;;;;;;;23.62;41.98;95478.88;5121607;28;20207;-68
2022/07/17 08:37:04;;;;;;;3.53;3.22;;;;;;;23.71;43.76;95487.59;5121729;28;20516;-68
2022/07/17 08:39:31;;;;;;;4.55;3.90;;;;;;;23.85;43.35;95485.75;5122222;28;20190;-68
2022/07/17 08:41:57;;;;;;;3.42;3.22;;;;;;;23.97;42.04;95485.94;5121113;28;20195;-68
2022/07/17 08:44:26;;;;;;;3.97;3.67;;;;;;;23.95;42.47;95485.56;5122172;28;20196;-68
2022/07/17 08:46:54;;;;;;;4.15;3.83;;;;;;;23.99;43.33;95472.19;5121901;28;20233;-68
2022/07/17 08:49:22;;;;;;;4.43;4.03;;;;;;;24.06;41.65;95484.56;5122014;28;20603;-68
2022/07/17 08:51:48;;;;;;;4.78;3.83;;;;;;;24.06;41.27;95479.72;5122021;28;20268;-68
2022/07/17 08:54:16;;;;;;;4.85;4.45;;;;;;;24.08;42.15;95476.50;5121668;28;20273;-68
2022/07/17 08:56:43;;;;;;;3.92;3.63;;;;;;;24.10;41.77;95468.38;5121099;28;20192;-68
2022/07/17 08:59:10;;;;;;;3.90;3.60;;;;;;;24.12;41.70;95472.38;5121922;28;20192;-68
2022/07/17 09:01:39;;;;;;;3.70;3.40;;;;;;;24.21;41.17;95463.34;5121886;28;20184;-68
2022/07/17 09:04:07;;;;;;;3.92;3.53;;;;;;;24.27;41.62;95472.88;5122175;27;20199;-68
2022/07/17 09:06:34;;;;;;;4.43;4.03;;;;;;;24.35;41.52;95463.06;5121968;28;20187;-68
2022/07/17 09:09:03;;;;;;;4.75;3.50;;;;;;;24.57;41.42;95469.09;5121506;28;20669;-68
2022/07/17 09:11:31;;;;;;;3.70;3.40;;;;;;;24.72;41.83;95472.41;5121245;28;20623;-68
2022/07/17 09:13:58;;;;;;;4.00;3.60;;;;;;;24.80;42.24;95468.22;5121905;27;20199;-68
2022/07/17 09:16:24;;;;;;;3.60;3.30;;;;;;;24.86;40.89;95469.25;5121882;28;20199;-68
2022/07/17 09:18:54;;;;;;;3.78;3.47;;;;;;;24.86;40.55;95463.63;5119950;28;20528;-68
2022/07/17 09:21:22;;;;;;;4.03;3.70;;;;;;;24.93;40.99;95463.47;5117694;28;20245;-68
2022/07/17 09:23:58;;;;;;;3.55;3.20;;;;;;;25.02;40.94;95470.53;5118493;28;20195;-68
2022/07/17 09:26:26;;;;;;;3.95;3.65;;;;;;;25.10;41.57;95460.69;5118576;28;20231;-68
2022/07/17 09:28:53;;;;;;;3.75;3.45;;;;;;;25.16;41.68;95464.59;5117366;28;20207;-68
2022/07/17 09:31:25;;;;;;;3.97;3.67;;;;;;;25.27;40.49;95453.06;5118422;28;20187;-68
2022/07/17 09:33:54;;;;;;;3.55;3.35;;;;;;;25.32;41.90;95452.53;5118461;28;20187;-68
2022/07/17 09:36:21;;;;;;;5.75;5.30;;;;;;;25.41;42.41;95459.16;5117019;28;20211;-68
2022/07/17 09:38:50;;;;;;;3.75;3.45;;;;;;;25.45;39.93;95456.22;5117403;28;20192;-68
2022/07/17 09:41:19;;;;;;;4.70;4.30;;;;;;;25.52;42.06;95464.53;5117231;28;20200;-68
2022/07/17 09:43:50;;;;;;;5.13;3.95;;;;;;;25.62;40.50;95462.69;5118002;28;20188;-68
2022/07/17 09:46:19;;;;;;;4.70;3.97;;;;;;;25.78;38.82;95459.03;5118085;28;20245;-68
2022/07/17 09:48:48;;;;;;;3.60;3.30;;;;;;;25.89;37.92;95451.13;5117655;28;20253;-68
2022/07/17 09:51:22;;;;;;;3.92;3.55;;;;;;;25.86;38.14;95452.81;5116873;28;20187;-68
2022/07/17 09:53:55;;;;;;;5.82;3.65;;;;;;;25.92;39.78;95453.84;5116774;28;20234;-68
2022/07/17 09:56:24;;;;;;;3.90;3.60;;;;;;;26.00;38.63;95456.47;5117968;28;20198;-68
2022/07/17 09:58:52;;;;;;;3.50;2.90;;;;;;;26.02;37.42;95457.63;5117563;28;20244;-68
2022/07/17 10:01:20;;;;;;;3.58;3.38;;;;;;;26.04;38.08;95457.19;5116639;28;20188;-68
2022/07/17 10:03:48;;;;;;;3.38;3.08;;;;;;;26.12;38.32;95445.25;5116544;28;20204;-68
2022/07/17 10:06:16;;;;;;;3.53;3.17;;;;;;;26.22;37.92;95451.84;5117448;28;20253;-68
2022/07/17 10:08:44;;;;;;;4.07;3.67;;;;;;;26.29;38.11;95453.66;5117717;28;20208;-68
2022/07/17 10:11:11;;;;;;;3.28;2.97;;;;;;;26.25;37.10;95450.16;5116821;28;20224;-68
2022/07/17 10:13:40;;;;;;;3.70;3.40;;;;;;;26.05;36.90;95455.97;5116682;28;20204;-68
2022/07/17 10:16:07;;;;;;;3.83;3.53;;;;;;;25.87;38.60;95454.41;5117532;28;20191;-68
2022/07/17 10:18:36;;;;;;;4.95;4.50;;;;;;;25.73;37.24;95451.13;5117228;28;20550;-68
2022/07/17 10:21:14;;;;;;;3.50;3.13;;;;;;;25.80;39.50;95454.56;5117134;28;20183;-68
2022/07/17 10:23:41;;;;;;;4.03;3.65;;;;;;;25.94;38.84;95450.59;5116520;28;20191;-68
2022/07/17 10:26:10;;;;;;;3.63;3.33;;;;;;;26.03;38.68;95438.63;5117468;28;20194;-68
2022/07/17 10:28:44;;;;;;;3.78;3.47;;;;;;;25.98;38.57;95439.19;5117336;28;20208;-68
2022/07/17 10:31:23;;;;;;;3.80;3.50;;;;;;;26.00;38.52;95434.69;5115718;28;20195;-68
2022/07/17 10:33:56;;;;;;;3.38;3.10;;;;;;;26.00;39.54;95428.22;5116379;28;20219;-68
2022/07/17 10:36:33;;;;;;;3.70;3.40;;;;;;;26.14;40.59;95439.13;5117224;28;20241;-68
2022/07/17 10:39:11;;;;;;;4.03;3.65;;;;;;;26.38;39.01;95431.22;5116698;28;20226;-68
2022/07/17 10:41:40;;;;;;;3.40;3.20;;;;;;;26.47;37.47;95431.38;5117262;28;20194;-68
2022/07/17 10:44:06;;;;;;;4.55;4.13;;;;;;;26.54;37.48;95427.53;5117255;28;20198;-68
2022/07/17 10:46:33;;;;;;;3.83;3.53;;;;;;;26.62;38.66;95426.91;5116035;28;20195;-68
2022/07/17 10:49:03;;;;;;;3.60;3.30;;;;;;;26.69;37.04;95425.06;5115882;28;20207;-68
2022/07/17 10:51:30;;;;;;;3.70;3.40;;;;;;;26.76;37.14;95422.84;5116698;28;20191;-68
2022/07/17 10:53:58;;;;;;;3.60;3.30;;;;;;;26.93;37.26;95415.03;5116556;28;20246;-68
2022/07/17 10:56:25;;;;;;;3.28;2.97;;;;;;;27.03;36.33;95425.25;5115912;28;20200;-68
2022/07/17 10:58:54;;;;;;;4.00;3.55;;;;;;;27.10;36.65;95415.72;5116836;28;20191;-68
2022/07/17 11:01:22;;;;;;;3.65;3.30;;;;;;;27.07;37.52;95420.25;5116484;28;20211;-69
2022/07/17 11:03:50;;;;;;;5.70;3.58;;;;;;;27.05;36.66;95416.28;5116051;28;20202;-69
2022/07/17 11:06:18;;;;;;;5.05;4.63;;;;;;;27.02;36.27;95403.06;5115846;28;20204;-68
2022/07/17 11:08:47;;;;;;;4.15;3.80;;;;;;;27.10;38.01;95415.72;5115646;28;20222;-68
2022/07/17 11:11:15;;;;;;;4.63;3.38;;;;;;;27.03;37.20;95404.63;5116535;28;20198;-69
2022/07/17 11:13:42;;;;;;;4.55;3.67;;;;;;;26.92;36.74;95409.84;5116078;28;20568;-68
2022/07/17 11:16:10;;;;;;;3.38;3.17;;;;;;;26.92;36.74;95409.84;5116473;28;20230;-68
2022/07/17 11:18:37;;;;;;;3.33;3.03;;;;;;;27.04;35.34;95411.88;5116075;28;20632;-68
2022/07/17 11:21:05;;;;;;;3.42;3.13;;;;;;;27.06;36.09;95410.19;5115932;28;20541;-68
2022/07/17 11:23:33;;;;;;;3.78;3.40;;;;;;;27.03;35.91;95408.25;5116462;28;20187;-68
2022/07/17 11:26:03;;;;;;;3.63;3.33;;;;;;;26.84;36.10;95395.91;5115889;28;20195;-68
2022/07/17 11:28:36;;;;;;;3.33;3.13;;;;;;;26.83;36.27;95399.19;5114973;28;20215;-68
2022/07/17 11:31:15;;;;;;;3.60;3.30;;;;;;;26.93;36.71;95383.91;5115199;28;20205;-68
2022/07/17 11:33:48;;;;;;;3.80;3.50;;;;;;;27.07;38.17;95396.81;5116418;28;20183;-68
2022/07/17 11:36:21;;;;;;;3.40;3.15;;;;;;;27.15;38.19;95392.53;5115408;28;20196;-69
2022/07/17 11:38:48;;;;;;;3.22;3.03;;;;;;;27.37;36.39;95401.13;5116290;28;20192;-69